createdAt,value
2017-12-12T00:01:37.565Z,98111
2017-12-12T00:04:05.722Z,98102
2017-12-12T00:06:33.794Z,98110
2017-12-12T00:09:02.271Z,98106
2017-12-12T00:11:30.341Z,98121
2017-12-12T00:13:58.475Z,98121
2017-12-12T00:16:26.578Z,98131
2017-12-12T00:18:54.655Z,98129
2017-12-12T00:21:23.520Z,98122
2017-12-12T00:23:51.661Z,98118
2017-12-12T00:26:19.746Z,98119
2017-12-12T00:28:47.807Z,98124
2017-12-12T00:31:16.305Z,98139
2017-12-12T00:33:45.294Z,98143
2017-12-12T00:36:14.135Z,98148
2017-12-12T00:38:43.361Z,98143
2017-12-12T00:41:11.431Z,98158
2017-12-12T00:43:39.527Z,98148
2017-12-12T00:46:07.599Z,98153
2017-12-12T00:48:35.684Z,98144
2017-12-12T00:51:03.755Z,98149
2017-12-12T00:53:31.843Z,98156
2017-12-12T00:55:59.917Z,98159
2017-12-12T00:58:28.087Z,98172
2017-12-12T01:00:56.263Z,98151
2017-12-12T01:03:24.342Z,98152
2017-12-12T01:05:52.416Z,98152
2017-12-12T01:08:21.295Z,98160
2017-12-12T01:10:49.350Z,98175
2017-12-12T01:13:17.419Z,98181
2017-12-12T01:15:45.772Z,98177
2017-12-12T01:18:13.827Z,98175
2017-12-12T01:20:42.018Z,98178
2017-12-12T01:23:10.089Z,98187
2017-12-12T01:25:38.452Z,98188
2017-12-12T01:28:06.564Z,98172
2017-12-12T01:30:34.739Z,98186
2017-12-12T01:33:02.808Z,98178
2017-12-12T01:35:30.882Z,98195
2017-12-12T01:37:59.062Z,98173
2017-12-12T01:40:27.223Z,98175
2017-12-12T01:42:55.290Z,98169
2017-12-12T01:45:23.382Z,98162
2017-12-12T01:47:51.454Z,98167
2017-12-12T01:50:19.511Z,98165
2017-12-12T01:52:47.586Z,98164
2017-12-12T01:55:16.069Z,98167
2017-12-12T01:57:44.143Z,98171
2017-12-12T02:00:12.215Z,98175
2017-12-12T02:02:40.282Z,98180
2017-12-12T02:05:08.344Z,98171
2017-12-12T02:07:36.411Z,98178
2017-12-12T02:10:04.480Z,98164
2017-12-12T02:12:32.644Z,98169
2017-12-12T02:15:00.733Z,98158
2017-12-12T02:17:28.834Z,98179
2017-12-12T02:19:57.664Z,98174
2017-12-12T02:22:25.745Z,98156
2017-12-12T02:24:53.808Z,98163
2017-12-12T02:27:21.874Z,98180
2017-12-12T02:29:49.946Z,98179
2017-12-12T02:32:18.040Z,98182
2017-12-12T02:34:46.097Z,98188
2017-12-12T02:37:14.172Z,98188
2017-12-12T02:39:42.254Z,98180
2017-12-12T02:42:10.347Z,98186
2017-12-12T02:44:40.148Z,98195
2017-12-12T02:47:08.208Z,98201
2017-12-12T02:49:36.285Z,98203
2017-12-12T02:52:05.114Z,98197
2017-12-12T02:54:33.191Z,98199
2017-12-12T02:57:01.264Z,98204
2017-12-12T02:59:29.408Z,98208
2017-12-12T03:01:58.233Z,98219
2017-12-12T03:04:26.306Z,98213
2017-12-12T03:06:54.403Z,98218
2017-12-12T03:09:22.600Z,98210
2017-12-12T03:11:50.668Z,98209
2017-12-12T03:14:19.510Z,98204
2017-12-12T03:16:47.570Z,98197
2017-12-12T03:19:15.689Z,98208
2017-12-12T03:21:43.755Z,98193
2017-12-12T03:24:11.930Z,98203
2017-12-12T03:26:39.999Z,98197
2017-12-12T03:29:08.078Z,98213
2017-12-12T03:31:36.146Z,98206
2017-12-12T03:34:04.207Z,98217
2017-12-12T03:36:32.376Z,98220
2017-12-12T03:39:00.443Z,98227
2017-12-12T03:41:28.510Z,98221
2017-12-12T03:43:56.583Z,98220
2017-12-12T03:46:24.656Z,98227
2017-12-12T03:48:52.719Z,98235
2017-12-12T03:51:20.795Z,98244
2017-12-12T03:53:48.867Z,98245
2017-12-12T03:56:17.050Z,98255
2017-12-12T03:58:45.230Z,98239
2017-12-12T04:01:13.291Z,98246
2017-12-12T04:03:41.363Z,98241
2017-12-12T04:06:09.435Z,98245
2017-12-12T04:08:37.494Z,98237
2017-12-12T04:11:05.572Z,98244
2017-12-12T04:13:33.642Z,98226
2017-12-12T04:16:01.820Z,98233
2017-12-12T04:18:30.204Z,98249
2017-12-12T04:20:58.354Z,98265
2017-12-12T04:23:26.429Z,98279
2017-12-12T04:25:54.520Z,98279
2017-12-12T04:28:23.448Z,98296
2017-12-12T04:30:51.501Z,98308
2017-12-12T04:33:19.576Z,98295
2017-12-12T04:35:47.648Z,98299
2017-12-12T04:38:15.721Z,98309
2017-12-12T04:40:43.844Z,98317
2017-12-12T04:43:11.917Z,98319
2017-12-12T04:45:40.637Z,98328
2017-12-12T04:48:09.467Z,98327
2017-12-12T04:50:37.526Z,98310
2017-12-12T04:53:05.601Z,98333
2017-12-12T04:55:33.695Z,98332
2017-12-12T04:58:01.764Z,98336
2017-12-12T05:00:31.750Z,98357
2017-12-12T05:02:59.825Z,98346
2017-12-12T05:05:27.882Z,98353
2017-12-12T05:07:55.967Z,98355
2017-12-12T05:10:24.023Z,98357
2017-12-12T05:12:52.095Z,98367
2017-12-12T05:15:20.155Z,98379
2017-12-12T05:17:48.223Z,98383
2017-12-12T05:20:16.351Z,98380
2017-12-12T05:22:44.419Z,98395
2017-12-12T05:25:12.599Z,98379
2017-12-12T05:27:40.659Z,98402
2017-12-12T05:30:08.727Z,98396
2017-12-12T05:32:36.817Z,98395
2017-12-12T05:35:04.876Z,98409
2017-12-12T05:37:32.934Z,98397
2017-12-12T05:40:01.013Z,98396
2017-12-12T05:42:29.080Z,98402
2017-12-12T05:44:57.154Z,98402
2017-12-12T05:47:25.960Z,98425
2017-12-12T05:49:54.131Z,98431
2017-12-12T05:52:22.200Z,98436
2017-12-12T05:54:50.260Z,98434
2017-12-12T05:57:18.339Z,98431
2017-12-12T05:59:46.459Z,98444
2017-12-12T06:02:14.522Z,98443
2017-12-12T06:04:42.647Z,98458
2017-12-12T06:07:10.714Z,98468
2017-12-12T06:09:38.772Z,98472
2017-12-12T06:12:06.839Z,98482
2017-12-12T06:14:34.902Z,98472
2017-12-12T06:17:03.003Z,98474
2017-12-12T06:19:31.442Z,98476
2017-12-12T06:21:59.515Z,98508
2017-12-12T06:24:27.580Z,98490
2017-12-12T06:26:55.638Z,98528
2017-12-12T06:29:23.710Z,98512
2017-12-12T06:31:51.780Z,98511
2017-12-12T06:34:19.851Z,98521
2017-12-12T06:36:47.923Z,98538
2017-12-12T06:39:15.996Z,98509
2017-12-12T06:41:44.069Z,98535
2017-12-12T06:44:12.141Z,98544
2017-12-12T06:46:40.214Z,98557
2017-12-12T06:49:08.286Z,98553
2017-12-12T06:51:36.352Z,98561
2017-12-12T06:54:04.447Z,98575
2017-12-12T06:56:32.518Z,98558
2017-12-12T06:59:00.672Z,98575
2017-12-12T07:01:28.722Z,98603
2017-12-12T07:03:56.786Z,98610
2017-12-12T07:06:24.919Z,98621
2017-12-12T07:08:53.000Z,98615
2017-12-12T07:11:21.058Z,98617
2017-12-12T07:13:49.125Z,98620
2017-12-12T07:16:17.311Z,98631
2017-12-12T07:18:45.383Z,98651
2017-12-12T07:21:13.468Z,98652
2017-12-12T07:23:41.543Z,98639
2017-12-12T07:26:10.385Z,98668
2017-12-12T07:28:38.446Z,98674
2017-12-12T07:31:06.500Z,98672
2017-12-12T07:33:34.564Z,98669
2017-12-12T07:36:02.634Z,98685
2017-12-12T07:38:30.690Z,98680
2017-12-12T07:40:59.525Z,98682
2017-12-12T07:43:27.627Z,98689
2017-12-12T07:45:55.727Z,98695
2017-12-12T07:48:23.865Z,98714
2017-12-12T07:50:51.946Z,98708
2017-12-12T07:53:20.015Z,98719
2017-12-12T07:55:48.502Z,98711
2017-12-12T07:58:17.330Z,98724
2017-12-12T08:00:45.491Z,98748
2017-12-12T08:03:13.602Z,98724
2017-12-12T08:05:41.679Z,98755
2017-12-12T08:08:09.756Z,98864
2017-12-12T08:10:37.817Z,98765
2017-12-12T08:13:05.891Z,98744
2017-12-12T08:15:33.960Z,98770
2017-12-12T08:18:02.048Z,98748
2017-12-12T08:20:30.111Z,98772
2017-12-12T08:22:58.186Z,98785
2017-12-12T08:25:26.257Z,98782
2017-12-12T08:27:54.357Z,98795
2017-12-12T08:30:22.448Z,98786
2017-12-12T08:32:50.517Z,98809
2017-12-12T08:35:18.592Z,98826
2017-12-12T08:37:46.667Z,98839
2017-12-12T08:40:14.741Z,98865
2017-12-12T08:42:42.814Z,98875
2017-12-12T08:45:10.898Z,98949
2017-12-12T08:47:38.971Z,98942
2017-12-12T08:50:07.034Z,98923
2017-12-12T08:52:35.160Z,98941
2017-12-12T08:55:03.231Z,98929
2017-12-12T08:57:31.388Z,98977
2017-12-12T08:59:59.461Z,98984
2017-12-12T09:02:28.317Z,98989
2017-12-12T09:04:56.392Z,98991
2017-12-12T09:07:24.455Z,99003
2017-12-12T09:09:52.531Z,99003
2017-12-12T09:12:20.598Z,99012
2017-12-12T09:14:48.658Z,99021
2017-12-12T09:17:16.730Z,99031
2017-12-12T09:19:44.804Z,99038
2017-12-12T09:22:12.867Z,99068
2017-12-12T09:24:40.941Z,99053
2017-12-12T09:27:08.990Z,99064
2017-12-12T09:29:37.063Z,99066
2017-12-12T09:32:05.136Z,99082
2017-12-12T09:34:33.241Z,99089
2017-12-12T09:37:01.306Z,99157
2017-12-12T09:39:29.379Z,99094
2017-12-12T09:41:57.456Z,99119
2017-12-12T09:44:25.511Z,99147
2017-12-12T09:46:53.577Z,99101
2017-12-12T09:49:21.634Z,99112
2017-12-12T09:51:49.711Z,99127
2017-12-12T09:54:17.771Z,99137
2017-12-12T09:56:45.855Z,99150
2017-12-12T09:59:13.951Z,99143
2017-12-12T10:01:42.030Z,99173
2017-12-12T10:04:10.136Z,99168
2017-12-12T10:06:38.235Z,99205
2017-12-12T10:09:06.327Z,99215
2017-12-12T10:11:34.404Z,99216
2017-12-12T10:14:02.476Z,99244
2017-12-12T10:16:30.544Z,99222
2017-12-12T10:18:58.600Z,99224
2017-12-12T10:21:26.686Z,99226
2017-12-12T10:23:54.759Z,99220
2017-12-12T10:26:22.819Z,99232
2017-12-12T10:28:50.891Z,99233
2017-12-12T10:31:18.974Z,99244
2017-12-12T10:33:47.037Z,99243
2017-12-12T10:36:15.120Z,99244
2017-12-12T10:38:43.182Z,99248
2017-12-12T10:41:11.314Z,99260
2017-12-12T10:43:39.384Z,99248
2017-12-12T10:46:07.452Z,99271
2017-12-12T10:48:35.536Z,99267
2017-12-12T10:51:03.601Z,99263
2017-12-12T10:53:31.678Z,99261
2017-12-12T10:55:59.755Z,99290
2017-12-12T10:58:27.831Z,99285
2017-12-12T11:00:56.579Z,99292
2017-12-12T11:03:24.638Z,99315
2017-12-12T11:05:52.697Z,99370
2017-12-12T11:08:21.530Z,99325
2017-12-12T11:10:49.620Z,99345
2017-12-12T11:13:17.686Z,99374
2017-12-12T11:15:45.772Z,99338
2017-12-12T11:18:13.839Z,99350
2017-12-12T11:20:41.912Z,99372
2017-12-12T11:23:09.982Z,99393
2017-12-12T11:25:38.099Z,99372
2017-12-12T11:28:06.166Z,99387
2017-12-12T11:30:34.360Z,99397
2017-12-12T11:33:02.409Z,99422
2017-12-12T11:35:30.477Z,99434
2017-12-12T11:37:59.312Z,99433
2017-12-12T11:40:27.399Z,99437
2017-12-12T11:42:55.477Z,99453
2017-12-12T11:45:23.648Z,99456
2017-12-12T11:47:51.723Z,99456
2017-12-12T11:50:19.797Z,99471
2017-12-12T11:52:47.868Z,99501
2017-12-12T11:55:16.746Z,99487
2017-12-12T11:57:44.818Z,99477
2017-12-12T12:00:12.892Z,99481
2017-12-12T12:02:41.060Z,99483
2017-12-12T12:05:09.138Z,99471
2017-12-12T12:07:37.211Z,99492
2017-12-12T12:10:05.277Z,99484
2017-12-12T12:12:33.356Z,99497
2017-12-12T12:15:02.204Z,99489
2017-12-12T12:17:30.296Z,99497
2017-12-12T12:19:58.368Z,99510
2017-12-12T12:22:26.510Z,99523
2017-12-12T12:24:54.579Z,99537
2017-12-12T12:27:22.684Z,99532
2017-12-12T12:29:50.757Z,99524
2017-12-12T12:32:18.828Z,99525
2017-12-12T12:34:46.984Z,99527
2017-12-12T12:37:15.055Z,99551
2017-12-12T12:39:43.127Z,99555
2017-12-12T12:42:11.204Z,99572
2017-12-12T12:44:39.272Z,99547
2017-12-12T12:47:07.367Z,99544
2017-12-12T12:49:35.438Z,99555
2017-12-12T12:52:03.517Z,99569
2017-12-12T12:54:32.467Z,99538
2017-12-12T12:57:00.544Z,99566
2017-12-12T12:59:28.611Z,99572
2017-12-12T13:01:56.687Z,99563
2017-12-12T13:04:24.854Z,99583
2017-12-12T13:06:52.927Z,99583
2017-12-12T13:09:21.012Z,99598
2017-12-12T13:11:49.062Z,99595
2017-12-12T13:14:17.162Z,99607
2017-12-12T13:16:45.220Z,99646
2017-12-12T13:19:13.282Z,99640
2017-12-12T13:21:41.355Z,99619
2017-12-12T13:24:09.424Z,99618
2017-12-12T13:26:37.497Z,99650
2017-12-12T13:29:05.552Z,99664
2017-12-12T13:31:33.636Z,99664
2017-12-12T13:34:01.704Z,99647
2017-12-12T13:36:29.767Z,99667
2017-12-12T13:38:58.641Z,99662
2017-12-12T13:41:26.718Z,99681
2017-12-12T13:43:54.787Z,99677
2017-12-12T13:46:22.871Z,99663
2017-12-12T13:48:51.058Z,99668
2017-12-12T13:51:19.128Z,99694
2017-12-12T13:53:47.191Z,99695
2017-12-12T13:56:15.263Z,99679
2017-12-12T13:58:43.346Z,99690
2017-12-12T14:01:11.455Z,99709
2017-12-12T14:03:39.559Z,99704
2017-12-12T14:06:08.345Z,99712
2017-12-12T14:08:37.367Z,99717
2017-12-12T14:11:05.501Z,99712
2017-12-12T14:13:33.584Z,99724
2017-12-12T14:16:01.651Z,99726
2017-12-12T14:18:29.726Z,99750
2017-12-12T14:20:57.805Z,99748
2017-12-12T14:23:25.875Z,99766
2017-12-12T14:25:53.963Z,99766
2017-12-12T14:28:22.131Z,99761
2017-12-12T14:30:50.186Z,99781
2017-12-12T14:33:18.265Z,99797
2017-12-12T14:35:46.325Z,99797
2017-12-12T14:38:14.399Z,99786
2017-12-12T14:40:42.477Z,99783
2017-12-12T14:43:10.576Z,99801
2017-12-12T14:45:39.056Z,99806
2017-12-12T14:48:07.887Z,99805
2017-12-12T14:50:35.967Z,99800
2017-12-12T14:53:04.989Z,99825
2017-12-12T14:55:33.074Z,99826
2017-12-12T14:58:01.144Z,99831
2017-12-12T15:00:29.202Z,99832
2017-12-12T15:02:57.318Z,99836
2017-12-12T15:05:25.427Z,99839
2017-12-12T15:07:53.504Z,99845
2017-12-12T15:10:21.564Z,99858
2017-12-12T15:12:50.567Z,99861
2017-12-12T15:15:18.626Z,99893
2017-12-12T15:17:46.695Z,99873
2017-12-12T15:20:14.772Z,99904
2017-12-12T15:22:42.850Z,99886
2017-12-12T15:25:10.924Z,99885
2017-12-12T15:27:39.038Z,99902
2017-12-12T15:30:07.129Z,99943
2017-12-12T15:32:35.184Z,99917
2017-12-12T15:35:03.270Z,99922
2017-12-12T15:37:31.343Z,99916
2017-12-12T15:39:59.412Z,99935
2017-12-12T15:42:27.479Z,99921
2017-12-12T15:44:55.551Z,99942
2017-12-12T15:47:23.659Z,99946
2017-12-12T15:49:51.718Z,99944
2017-12-12T15:52:19.795Z,99951
2017-12-12T15:54:47.869Z,99938
2017-12-12T15:57:16.060Z,99951
2017-12-12T15:59:44.111Z,99948
2017-12-12T16:02:12.187Z,99962
2017-12-12T16:04:40.249Z,99968
2017-12-12T16:07:08.327Z,99968
2017-12-12T16:09:36.537Z,99968
2017-12-12T16:12:05.636Z,99979
2017-12-12T16:14:33.704Z,99979
2017-12-12T16:17:01.812Z,99982
2017-12-12T16:19:29.871Z,99990
2017-12-12T16:21:57.943Z,99993
2017-12-12T16:24:26.012Z,99996
2017-12-12T16:26:54.083Z,100013
2017-12-12T16:29:22.147Z,100017
2017-12-12T16:31:50.232Z,100043
2017-12-12T16:34:18.294Z,100025
2017-12-12T16:36:46.374Z,100032
2017-12-12T16:39:14.434Z,100041
2017-12-12T16:41:42.549Z,100040
2017-12-12T16:44:10.624Z,100048
2017-12-12T16:46:38.694Z,100048
2017-12-12T16:49:06.772Z,100059
2017-12-12T16:51:35.602Z,100067
2017-12-12T16:54:03.667Z,100066
2017-12-12T16:56:31.744Z,100073
2017-12-12T16:58:59.814Z,100094
2017-12-12T17:01:27.883Z,100086
2017-12-12T17:03:55.974Z,100083
2017-12-12T17:06:24.085Z,100129
2017-12-12T17:08:53.359Z,100099
2017-12-12T17:11:21.423Z,100104
2017-12-12T17:13:49.534Z,100133
2017-12-12T17:16:18.383Z,100115
2017-12-12T17:18:46.454Z,100118
2017-12-12T17:21:14.554Z,100117
2017-12-12T17:23:42.632Z,100124
2017-12-12T17:26:11.515Z,100132
2017-12-12T17:28:39.551Z,100144
2017-12-12T17:31:07.626Z,100167
2017-12-12T17:33:36.602Z,100159
2017-12-12T17:36:04.691Z,100165
2017-12-12T17:38:32.742Z,100170
2017-12-12T17:41:01.253Z,100197
2017-12-12T17:43:29.310Z,100200
2017-12-12T17:45:57.390Z,100203
2017-12-12T17:48:25.447Z,100211
2017-12-12T17:50:53.514Z,100213
2017-12-12T17:53:30.499Z,100224
2017-12-12T17:55:58.571Z,100237
2017-12-12T17:58:26.634Z,100233
2017-12-12T18:00:54.726Z,100248
2017-12-12T18:03:22.804Z,100257
2017-12-12T18:05:50.866Z,100268
2017-12-12T18:08:19.027Z,100283
2017-12-12T18:10:47.095Z,100279
2017-12-12T18:13:15.168Z,100289
2017-12-12T18:15:43.239Z,100296
2017-12-12T18:18:11.315Z,100309
2017-12-12T18:20:39.390Z,100330
2017-12-12T18:23:07.466Z,100326
2017-12-12T18:25:35.539Z,100343
2017-12-12T18:28:03.612Z,100350
2017-12-12T18:30:31.666Z,100355
2017-12-12T18:32:59.738Z,100367
2017-12-12T18:35:27.811Z,100368
2017-12-12T18:37:55.882Z,100387
2017-12-12T18:40:23.951Z,100374
2017-12-12T18:42:52.919Z,100389
2017-12-12T18:45:21.706Z,100395
2017-12-12T18:47:49.806Z,100410
2017-12-12T18:50:17.984Z,100417
2017-12-12T18:52:46.051Z,100415
2017-12-12T18:55:14.640Z,100428
2017-12-12T18:57:42.708Z,100429
2017-12-12T19:00:10.885Z,100446
2017-12-12T19:02:38.967Z,100432
2017-12-12T19:05:07.039Z,100444
2017-12-12T19:07:35.101Z,100456
2017-12-12T19:10:03.173Z,100461
2017-12-12T19:12:31.240Z,100459
2017-12-12T19:14:59.401Z,100468
2017-12-12T19:17:27.464Z,100476
2017-12-12T19:19:55.543Z,100478
2017-12-12T19:22:23.631Z,100479
2017-12-12T19:24:52.484Z,100483
2017-12-12T19:27:20.552Z,100484
2017-12-12T19:29:48.639Z,100497
2017-12-12T19:32:16.706Z,100484
2017-12-12T19:34:44.794Z,100488
2017-12-12T19:37:12.855Z,100507
2017-12-12T19:39:40.931Z,100502
2017-12-12T19:42:09.090Z,100506
2017-12-12T19:44:37.226Z,100515
2017-12-12T19:47:05.347Z,100514
2017-12-12T19:49:33.414Z,100523
2017-12-12T19:52:01.486Z,100529
2017-12-12T19:54:29.554Z,100524
2017-12-12T19:56:57.632Z,100527
2017-12-12T19:59:25.951Z,100535
2017-12-12T20:01:54.025Z,100533
2017-12-12T20:04:22.098Z,100539
2017-12-12T20:06:50.164Z,100548
2017-12-12T20:09:18.253Z,100537
2017-12-12T20:11:46.323Z,100548
2017-12-12T20:14:14.403Z,100549
2017-12-12T20:16:42.476Z,100558
2017-12-12T20:19:10.547Z,100563
2017-12-12T20:21:38.635Z,100576
2017-12-12T20:24:06.715Z,100569
2017-12-12T20:26:34.799Z,100580
2017-12-12T20:29:03.669Z,100582
2017-12-12T20:31:32.185Z,100589
2017-12-12T20:34:01.010Z,100587
2017-12-12T20:36:29.083Z,100605
2017-12-12T20:38:57.191Z,100598
2017-12-12T20:41:26.029Z,100603
2017-12-12T20:43:54.147Z,100610
2017-12-12T20:46:22.215Z,100618
2017-12-12T20:48:50.388Z,100615
2017-12-12T20:51:18.462Z,100627
2017-12-12T20:53:46.536Z,100628
2017-12-12T20:56:15.370Z,100637
2017-12-12T20:58:43.457Z,100643
2017-12-12T21:01:11.532Z,100634
2017-12-12T21:03:39.589Z,100633
2017-12-12T21:06:07.667Z,100637
2017-12-12T21:08:35.740Z,100640
2017-12-12T21:11:03.823Z,100656
2017-12-12T21:13:31.999Z,100652
2017-12-12T21:16:00.063Z,100662
2017-12-12T21:18:28.139Z,100662
2017-12-12T21:20:56.209Z,100665
2017-12-12T21:23:24.671Z,100664
2017-12-12T21:25:52.755Z,100679
2017-12-12T21:28:20.827Z,100680
2017-12-12T21:30:48.907Z,100671
2017-12-12T21:33:16.982Z,100672
2017-12-12T21:35:45.043Z,100687
2017-12-12T21:38:13.120Z,100686
2017-12-12T21:40:42.188Z,100696
2017-12-12T21:43:10.886Z,100689
2017-12-12T21:45:39.011Z,100685
2017-12-12T21:48:07.844Z,100690
2017-12-12T21:50:35.915Z,100697
2017-12-12T21:53:03.992Z,100706
2017-12-12T21:55:32.068Z,100699
2017-12-12T21:58:00.144Z,100709
2017-12-12T22:00:28.204Z,100694
2017-12-12T22:02:56.281Z,100703
2017-12-12T22:05:24.354Z,100708
2017-12-12T22:07:52.428Z,100700
2017-12-12T22:10:20.501Z,100708
2017-12-12T22:12:48.569Z,100699
2017-12-12T22:15:16.633Z,100701
2017-12-12T22:17:44.704Z,100721
2017-12-12T22:20:12.766Z,100722
2017-12-12T22:22:40.839Z,100725
2017-12-12T22:25:09.808Z,100731
2017-12-12T22:27:38.818Z,100715
2017-12-12T22:30:06.885Z,100713
2017-12-12T22:32:34.960Z,100719
2017-12-12T22:35:03.039Z,100721
2017-12-12T22:37:31.124Z,100729
2017-12-12T22:40:00.192Z,100725
2017-12-12T22:42:28.257Z,100724
2017-12-12T22:44:56.332Z,100717
2017-12-12T22:47:24.402Z,100736
2017-12-12T22:49:52.467Z,100717
2017-12-12T22:52:20.579Z,100730
2017-12-12T22:54:48.735Z,100717
2017-12-12T22:57:16.824Z,100727
2017-12-12T22:59:44.878Z,100719
2017-12-12T23:02:12.955Z,100732
2017-12-12T23:04:41.027Z,100727
2017-12-12T23:07:09.110Z,100731
2017-12-12T23:09:38.023Z,100735
2017-12-12T23:12:06.110Z,100738
2017-12-12T23:14:34.559Z,100737
2017-12-12T23:17:02.836Z,100746
2017-12-12T23:19:31.661Z,100745
2017-12-12T23:21:59.767Z,100748
2017-12-12T23:24:27.825Z,100749
2017-12-12T23:26:55.895Z,100759
2017-12-12T23:29:23.964Z,100749
2017-12-12T23:31:52.020Z,100762
2017-12-12T23:34:20.093Z,100760
2017-12-12T23:36:48.184Z,100763
2017-12-12T23:39:16.257Z,100768
2017-12-12T23:41:44.323Z,100765
2017-12-12T23:44:12.415Z,100762
2017-12-12T23:46:40.479Z,100777
2017-12-12T23:49:08.549Z,100762
2017-12-12T23:51:36.612Z,100769
2017-12-12T23:54:04.697Z,100777
2017-12-12T23:56:33.539Z,100773
2017-12-12T23:59:01.611Z,100767
